Time,TemperatureF,DewpointF,PressureIn,WindDirection,WindDirectionDegrees,WindSpeedMPH,WindSpeedGustMPH,Humidity,HourlyPrecipIn,Conditions,Clouds,dailyrainin,SoftwareType,DateUTC
2013-10-25 00:00:00,38.0,29.0,-100.00,West,261,7.0,10.0,69,0.00,,,-99.99,,2013-10-25 04:00:00,
2013-10-25 00:44:00,38.0,29.0,-100.00,West,261,7.0,10.0,69,0.00,,,-99.99,,2013-10-25 04:44:00,
2013-10-25 00:54:00,38.0,29.0,-100.00,West,261,7.0,10.0,69,0.00,,,-99.99,,2013-10-25 04:54:00,
2013-10-25 01:00:00,38.0,29.0,-100.00,West,271,5.0,9.0,70,0.00,,,-99.99,,2013-10-25 05:00:00,
2013-10-25 01:42:00,38.0,29.0,-100.00,West,271,5.0,9.0,70,0.00,,,-99.99,,2013-10-25 05:42:00,
2013-10-25 01:51:00,38.0,29.0,-100.00,West,271,5.0,9.0,70,0.00,,,-99.99,,2013-10-25 05:51:00,
2013-10-25 02:00:00,38.0,28.0,-100.00,West,264,6.0,10.0,68,0.00,,,-99.99,,2013-10-25 06:00:00,
2013-10-25 02:41:00,38.0,28.0,-100.00,West,264,6.0,10.0,68,0.00,,,-99.99,,2013-10-25 06:41:00,
2013-10-25 02:51:00,38.0,28.0,-100.00,West,264,6.0,10.0,68,0.00,,,-99.99,,2013-10-25 06:51:00,
2013-10-25 03:00:00,37.0,29.0,-100.00,NW,308,4.0,11.0,71,0.00,,,-99.99,,2013-10-25 07:00:00,
2013-10-25 03:41:00,37.0,29.0,-100.00,NW,308,4.0,11.0,71,0.00,,,-99.99,,2013-10-25 07:41:00,
2013-10-25 03:51:00,37.0,29.0,-100.00,NW,308,4.0,11.0,71,0.00,,,-99.99,,2013-10-25 07:51:00,
2013-10-25 04:00:00,36.0,29.0,-100.00,WNW,289,3.0,8.0,75,0.00,,,-99.99,,2013-10-25 08:00:00,
2013-10-25 04:41:00,36.0,29.0,-100.00,WNW,289,3.0,8.0,75,0.00,,,-99.99,,2013-10-25 08:41:00,
2013-10-25 04:51:00,36.0,29.0,-100.00,WNW,289,3.0,8.0,75,0.00,,,-99.99,,2013-10-25 08:51:00,
2013-10-25 05:00:00,35.0,29.0,-100.00,West,280,1.0,7.0,79,0.00,,,-99.99,,2013-10-25 09:00:00,
2013-10-25 05:42:00,35.0,29.0,-100.00,West,280,1.0,7.0,79,0.00,,,-99.99,,2013-10-25 09:42:00,
2013-10-25 05:52:00,35.0,29.0,-100.00,West,280,1.0,7.0,79,0.00,,,-99.99,,2013-10-25 09:52:00,
2013-10-25 06:00:00,34.0,29.0,-100.00,WNW,287,3.0,7.0,83,0.00,,,-99.99,,2013-10-25 10:00:00,
2013-10-25 06:41:00,34.0,29.0,-100.00,WNW,287,3.0,7.0,83,0.00,,,-99.99,,2013-10-25 10:41:00,
2013-10-25 06:52:00,34.0,29.0,-100.00,WNW,287,3.0,7.0,83,0.00,,,-99.99,,2013-10-25 10:52:00,
2013-10-25 07:00:00,35.0,29.0,-100.00,West,281,3.0,8.0,80,0.00,,,-99.99,,2013-10-25 11:00:00,
2013-10-25 07:41:00,35.0,29.0,-100.00,West,281,3.0,8.0,80,0.00,,,-99.99,,2013-10-25 11:41:00,
2013-10-25 07:51:00,35.0,29.0,-100.00,West,281,3.0,8.0,80,0.00,,,-99.99,,2013-10-25 11:51:00,
2013-10-25 08:00:00,36.0,30.0,-100.00,West,261,2.0,9.0,78,0.00,,,-99.99,,2013-10-25 12:00:00,
2013-10-25 08:41:00,36.0,30.0,-100.00,West,261,2.0,9.0,78,0.00,,,-99.99,,2013-10-25 12:41:00,
2013-10-25 08:51:00,36.0,30.0,-100.00,West,261,2.0,9.0,78,0.00,,,-99.99,,2013-10-25 12:51:00,
2013-10-25 09:00:00,41.0,31.0,-100.00,West,275,6.0,12.0,67,0.00,,,-99.99,,2013-10-25 13:00:00,
2013-10-25 09:42:00,41.0,31.0,-100.00,West,275,6.0,12.0,67,0.00,,,-99.99,,2013-10-25 13:42:00,
2013-10-25 09:52:00,41.0,31.0,-100.00,West,275,6.0,12.0,67,0.00,,,-99.99,,2013-10-25 13:52:00,
2013-10-25 10:00:00,44.0,31.0,-100.00,NNW,334,4.0,18.0,60,0.00,,,-99.99,,2013-10-25 14:00:00,
2013-10-25 10:42:00,44.0,31.0,-100.00,NNW,334,4.0,18.0,60,0.00,,,-99.99,,2013-10-25 14:42:00,
2013-10-25 10:52:00,44.0,31.0,-100.00,NNW,334,4.0,18.0,60,0.00,,,-99.99,,2013-10-25 14:52:00,
2013-10-25 11:00:00,48.0,33.0,-100.00,NNW,343,4.0,12.0,55,0.00,,,-99.99,,2013-10-25 15:00:00,
2013-10-25 11:43:00,48.0,33.0,-100.00,NNW,343,4.0,12.0,55,0.00,,,-99.99,,2013-10-25 15:43:00,
2013-10-25 11:53:00,48.0,33.0,-100.00,NNW,343,4.0,12.0,55,0.00,,,-99.99,,2013-10-25 15:53:00,
2013-10-25 12:00:00,50.0,31.0,-100.00,West,268,6.0,14.0,48,0.00,,,-99.99,,2013-10-25 16:00:00,
2013-10-25 12:43:00,50.0,31.0,-100.00,West,268,6.0,14.0,48,0.00,,,-99.99,,2013-10-25 16:43:00,
2013-10-25 12:53:00,50.0,31.0,-100.00,West,268,6.0,14.0,48,0.00,,,-99.99,,2013-10-25 16:53:00,
2013-10-25 13:00:00,49.0,30.0,-100.00,West,278,4.0,18.0,47,0.00,,,-99.99,,2013-10-25 17:00:00,
2013-10-25 13:43:00,49.0,30.0,-100.00,West,278,4.0,18.0,47,0.00,,,-99.99,,2013-10-25 17:43:00,
2013-10-25 13:52:00,49.0,30.0,-100.00,West,278,4.0,18.0,47,0.00,,,-99.99,,2013-10-25 17:52:00,
2013-10-25 14:00:00,51.0,29.0,-100.00,WNW,300,13.0,18.0,42,0.00,,,-99.99,,2013-10-25 18:00:00,
2013-10-25 14:42:00,51.0,29.0,-100.00,WNW,300,13.0,18.0,42,0.00,,,-99.99,,2013-10-25 18:42:00,
2013-10-25 14:52:00,51.0,29.0,-100.00,WNW,300,13.0,18.0,42,0.00,,,-99.99,,2013-10-25 18:52:00,
2013-10-25 15:00:00,53.0,29.0,-100.00,WNW,286,8.0,18.0,38,0.00,,,-99.99,,2013-10-25 19:00:00,
2013-10-25 15:42:00,53.0,29.0,-100.00,WNW,286,8.0,18.0,38,0.00,,,-99.99,,2013-10-25 19:42:00,
2013-10-25 15:52:00,53.0,29.0,-100.00,WNW,286,8.0,18.0,38,0.00,,,-99.99,,2013-10-25 19:52:00,
2013-10-25 16:00:00,52.0,28.0,-100.00,NW,305,8.0,18.0,39,0.00,,,-99.99,,2013-10-25 20:00:00,
2013-10-25 16:42:00,52.0,28.0,-100.00,NW,305,8.0,18.0,39,0.00,,,-99.99,,2013-10-25 20:42:00,
2013-10-25 16:52:00,52.0,28.0,-100.00,NW,305,8.0,18.0,39,0.00,,,-99.99,,2013-10-25 20:52:00,
2013-10-25 17:00:00,52.0,29.0,-100.00,WNW,294,6.0,17.0,41,0.00,,,-99.99,,2013-10-25 21:00:00,
2013-10-25 17:43:00,52.0,29.0,-100.00,WNW,294,6.0,17.0,41,0.00,,,-99.99,,2013-10-25 21:43:00,
2013-10-25 17:54:00,52.0,29.0,-100.00,WNW,294,6.0,17.0,41,0.00,,,-99.99,,2013-10-25 21:54:00,
2013-10-25 18:00:00,49.0,29.0,-100.00,WNW,295,6.0,13.0,46,0.00,,,-99.99,,2013-10-25 22:00:00,
2013-10-25 18:42:00,49.0,29.0,-100.00,WNW,295,6.0,13.0,46,0.00,,,-99.99,,2013-10-25 22:42:00,
2013-10-25 18:53:00,49.0,29.0,-100.00,WNW,295,6.0,13.0,46,0.00,,,-99.99,,2013-10-25 22:53:00,
2013-10-25 19:00:00,46.0,32.0,-100.00,WSW,256,3.0,9.0,58,0.00,,,-99.99,,2013-10-25 23:00:00,
2013-10-25 19:42:00,46.0,32.0,-100.00,WSW,256,3.0,9.0,58,0.00,,,-99.99,,2013-10-25 23:42:00,
2013-10-25 19:53:00,46.0,32.0,-100.00,WSW,256,3.0,9.0,58,0.00,,,-99.99,,2013-10-25 23:53:00,
2013-10-25 20:00:00,44.0,33.0,-100.00,WSW,244,2.0,8.0,64,0.00,,,-99.99,,2013-10-26 00:00:00,
2013-10-25 20:42:00,44.0,33.0,-100.00,WSW,244,2.0,8.0,64,0.00,,,-99.99,,2013-10-26 00:42:00,
2013-10-25 20:52:00,44.0,33.0,-100.00,WSW,244,2.0,8.0,64,0.00,,,-99.99,,2013-10-26 00:52:00,
2013-10-25 21:00:00,41.0,33.0,-100.00,SW,216,2.0,5.0,71,0.00,,,-99.99,,2013-10-26 01:00:00,
2013-10-25 21:42:00,41.0,33.0,-100.00,SW,216,2.0,5.0,71,0.00,,,-99.99,,2013-10-26 01:42:00,
2013-10-25 21:52:00,41.0,33.0,-100.00,SW,216,2.0,5.0,71,0.00,,,-99.99,,2013-10-26 01:52:00,
2013-10-25 22:00:00,40.0,33.0,-100.00,SW,234,2.0,4.0,76,0.00,,,-99.99,,2013-10-26 02:00:00,
2013-10-25 22:43:00,40.0,33.0,-100.00,SW,234,2.0,4.0,76,0.00,,,-99.99,,2013-10-26 02:43:00,
2013-10-25 22:52:00,40.0,33.0,-100.00,SW,234,2.0,4.0,76,0.00,,,-99.99,,2013-10-26 02:52:00,
2013-10-25 23:00:00,40.0,33.0,-100.00,WSW,251,3.0,6.0,76,0.00,,,-99.99,,2013-10-26 03:00:00,
2013-10-25 23:45:00,40.0,33.0,-100.00,WSW,251,3.0,6.0,76,0.00,,,-99.99,,2013-10-26 03:45:00,
2013-10-25 23:54:00,40.0,33.0,-100.00,WSW,251,3.0,6.0,76,0.00,,,-99.99,,2013-10-26 03:54:00,